sensor_id;sensor_type;location;lat;lon;timestamp;pressure;altitude;pressure_sealevel;temperature;humidity
32875;BME280;40468;42.128;24.750;2023-05-08T00:01:19;99962.56;;;13.41;53.31
32875;BME280;40468;42.128;24.750;2023-05-08T00:02:51;99958.25;;;13.40;53.20
32875;BME280;40468;42.128;24.750;2023-05-08T00:04:23;99955.81;;;13.37;53.30
32875;BME280;40468;42.128;24.750;2023-05-08T00:05:55;99954.09;;;13.36;53.05
32875;BME280;40468;42.128;24.750;2023-05-08T00:07:27;99939.00;;;13.26;53.34
32875;BME280;40468;42.128;24.750;2023-05-08T00:08:58;99948.31;;;13.31;53.49
32875;BME280;40468;42.128;24.750;2023-05-08T00:10:29;99950.91;;;13.31;53.06
32875;BME280;40468;42.128;24.750;2023-05-08T00:12:00;99955.22;;;13.32;53.44
32875;BME280;40468;42.128;24.750;2023-05-08T00:13:34;99930.53;;;13.20;53.57
32875;BME280;40468;42.128;24.750;2023-05-08T00:15:07;99949.22;;;13.30;53.46
32875;BME280;40468;42.128;24.750;2023-05-08T00:16:38;99947.72;;;13.25;53.63
32875;BME280;40468;42.128;24.750;2023-05-08T00:18:10;99960.50;;;13.31;53.51
32875;BME280;40468;42.128;24.750;2023-05-08T00:19:42;99954.59;;;13.27;53.55
32875;BME280;40468;42.128;24.750;2023-05-08T00:21:14;99934.91;;;13.20;53.78
32875;BME280;40468;42.128;24.750;2023-05-08T00:22:46;99940.63;;;13.28;53.81
32875;BME280;40468;42.128;24.750;2023-05-08T00:24:18;99950.13;;;13.29;53.58
32875;BME280;40468;42.128;24.750;2023-05-08T00:25:50;99950.97;;;13.30;53.85
32875;BME280;40468;42.128;24.750;2023-05-08T00:27:22;99955.22;;;13.32;53.80
32875;BME280;40468;42.128;24.750;2023-05-08T00:28:55;99940.81;;;13.24;54.01
32875;BME280;40468;42.128;24.750;2023-05-08T00:30:27;99939.84;;;13.26;53.76
32875;BME280;40468;42.128;24.750;2023-05-08T00:31:59;99939.00;;;13.26;54.17
32875;BME280;40468;42.128;24.750;2023-05-08T00:33:31;99944.97;;;13.28;54.34
32875;BME280;40468;42.128;24.750;2023-05-08T00:35:03;99948.63;;;13.25;54.33
32875;BME280;40468;42.128;24.750;2023-05-08T00:36:34;99937.38;;;13.23;54.42
32875;BME280;40468;42.128;24.750;2023-05-08T00:38:06;99944.44;;;13.21;54.37
32875;BME280;40468;42.128;24.750;2023-05-08T00:39:37;99946.22;;;13.20;54.43
32875;BME280;40468;42.128;24.750;2023-05-08T00:41:09;99946.44;;;13.16;54.49
32875;BME280;40468;42.128;24.750;2023-05-08T00:42:41;99945.44;;;13.18;54.33
32875;BME280;40468;42.128;24.750;2023-05-08T00:44:14;99945.72;;;13.14;54.18
32875;BME280;40468;42.128;24.750;2023-05-08T00:45:46;99950.84;;;13.15;54.34
32875;BME280;40468;42.128;24.750;2023-05-08T00:47:19;99950.09;;;13.13;54.58
32875;BME280;40468;42.128;24.750;2023-05-08T00:48:52;99953.56;;;13.14;54.38
32875;BME280;40468;42.128;24.750;2023-05-08T00:50:23;99951.94;;;13.11;54.26
32875;BME280;40468;42.128;24.750;2023-05-08T00:51:56;99961.31;;;13.15;54.18
32875;BME280;40468;42.128;24.750;2023-05-08T00:53:28;99959.53;;;13.16;54.11
32875;BME280;40468;42.128;24.750;2023-05-08T00:55:02;99958.00;;;13.12;54.17
32875;BME280;40468;42.128;24.750;2023-05-08T00:56:36;99959.63;;;13.14;54.13
32875;BME280;40468;42.128;24.750;2023-05-08T00:58:09;99958.09;;;13.10;53.92
32875;BME280;40468;42.128;24.750;2023-05-08T00:59:43;99968.47;;;13.12;54.26
32875;BME280;40468;42.128;24.750;2023-05-08T01:01:16;99960.94;;;13.06;54.11
32875;BME280;40468;42.128;24.750;2023-05-08T01:02:49;99958.34;;;13.06;53.93
32875;BME280;40468;42.128;24.750;2023-05-08T01:04:23;99970.31;;;13.10;54.11
32875;BME280;40468;42.128;24.750;2023-05-08T01:05:56;99979.03;;;13.10;53.97
32875;BME280;40468;42.128;24.750;2023-05-08T01:07:28;99973.78;;;13.10;53.79
32875;BME280;40468;42.128;24.750;2023-05-08T01:08:59;99986.00;;;13.10;54.14
32875;BME280;40468;42.128;24.750;2023-05-08T01:10:37;99968.78;;;13.06;54.12
32875;BME280;40468;42.128;24.750;2023-05-08T01:12:17;99976.63;;;13.06;54.12
32875;BME280;40468;42.128;24.750;2023-05-08T01:13:59;99979.25;;;13.06;53.82
32875;BME280;40468;42.128;24.750;2023-05-08T01:15:47;99980.34;;;13.02;53.87
32875;BME280;40468;42.128;24.750;2023-05-08T01:17:26;99977.03;;;12.98;53.96
32875;BME280;40468;42.128;24.750;2023-05-08T01:19:05;99982.97;;;13.02;53.90
32875;BME280;40468;42.128;24.750;2023-05-08T01:20:44;99984.81;;;13.00;54.17
32875;BME280;40468;42.128;24.750;2023-05-08T01:22:27;99989.34;;;12.96;53.84
32875;BME280;40468;42.128;24.750;2023-05-08T01:24:23;99989.56;;;12.91;54.13
32875;BME280;40468;42.128;24.750;2023-05-08T01:26:25;99989.84;;;12.87;54.14
32875;BME280;40468;42.128;24.750;2023-05-08T01:28:25;99988.38;;;12.81;53.91
32875;BME280;40468;42.128;24.750;2023-05-08T01:30:32;99987.66;;;12.78;54.03
32875;BME280;40468;42.128;24.750;2023-05-08T01:32:14;99986.41;;;12.69;54.38
32875;BME280;40468;42.128;24.750;2023-05-08T01:33:51;99987.28;;;12.68;54.49
32875;BME280;40468;42.128;24.750;2023-05-08T01:35:29;99987.28;;;12.68;54.67
32875;BME280;40468;42.128;24.750;2023-05-08T01:37:04;99987.44;;;12.65;54.37
32875;BME280;40468;42.128;24.750;2023-05-08T01:38:41;99988.53;;;12.61;54.58
32875;BME280;40468;42.128;24.750;2023-05-08T01:40:29;99988.69;;;12.58;54.58
32875;BME280;40468;42.128;24.750;2023-05-08T01:42:07;99984.63;;;12.52;54.53
32875;BME280;40468;42.128;24.750;2023-05-08T01:43:49;99953.66;;;12.27;54.65
32875;BME280;40468;42.128;24.750;2023-05-08T01:45:25;99979.72;;;12.46;54.90
32875;BME280;40468;42.128;24.750;2023-05-08T01:47:04;99983.00;;;12.49;54.89
32875;BME280;40468;42.128;24.750;2023-05-08T01:48:41;99984.78;;;12.49;54.94
32875;BME280;40468;42.128;24.750;2023-05-08T01:50:18;99987.44;;;12.47;54.67
32875;BME280;40468;42.128;24.750;2023-05-08T01:51:56;99945.44;;;12.17;54.50
32875;BME280;40468;42.128;24.750;2023-05-08T01:53:33;99987.69;;;12.43;54.45
32875;BME280;40468;42.128;24.750;2023-05-08T01:55:09;99981.69;;;12.41;54.52
32875;BME280;40468;42.128;24.750;2023-05-08T01:56:43;99979.16;;;12.39;54.66
32875;BME280;40468;42.128;24.750;2023-05-08T01:58:17;99985.09;;;12.43;54.85
32875;BME280;40468;42.128;24.750;2023-05-08T01:59:50;99980.91;;;12.39;54.70
32875;BME280;40468;42.128;24.750;2023-05-08T02:01:23;99989.47;;;12.42;54.82
32875;BME280;40468;42.128;24.750;2023-05-08T02:02:56;99984.25;;;12.42;54.70
32875;BME280;40468;42.128;24.750;2023-05-08T02:04:29;99985.09;;;12.43;54.81
32875;BME280;40468;42.128;24.750;2023-05-08T02:06:03;99979.94;;;12.41;54.60
32875;BME280;40468;42.128;24.750;2023-05-08T02:07:36;99967.34;;;12.32;54.51
32875;BME280;40468;42.128;24.750;2023-05-08T02:09:08;99986.09;;;12.40;54.46
32875;BME280;40468;42.128;24.750;2023-05-08T02:10:41;99986.16;;;12.39;54.54
32875;BME280;40468;42.128;24.750;2023-05-08T02:12:15;99976.00;;;12.33;54.62
32875;BME280;40468;42.128;24.750;2023-05-08T02:13:48;99976.84;;;12.33;54.62
32875;BME280;40468;42.128;24.750;2023-05-08T02:15:24;99978.63;;;12.33;54.75
32875;BME280;40468;42.128;24.750;2023-05-08T02:16:58;99985.69;;;12.31;54.96
32875;BME280;40468;42.128;24.750;2023-05-08T02:18:33;99981.38;;;12.29;54.96
32875;BME280;40468;42.128;24.750;2023-05-08T02:20:08;99977.09;;;12.28;54.88
32875;BME280;40468;42.128;24.750;2023-05-08T02:21:44;99958.50;;;12.17;54.68
32875;BME280;40468;42.128;24.750;2023-05-08T02:23:19;99966.94;;;12.22;54.85
32875;BME280;40468;42.128;24.750;2023-05-08T02:24:53;99978.22;;;12.23;54.87
32875;BME280;40468;42.128;24.750;2023-05-08T02:26:26;99988.69;;;12.23;55.16
32875;BME280;40468;42.128;24.750;2023-05-08T02:27:59;99982.06;;;12.16;54.81
32875;BME280;40468;42.128;24.750;2023-05-08T02:29:31;99987.22;;;12.17;55.15
32875;BME280;40468;42.128;24.750;2023-05-08T02:31:04;99976.84;;;12.16;55.03
32875;BME280;40468;42.128;24.750;2023-05-08T02:32:36;99986.13;;;12.21;55.18
32875;BME280;40468;42.128;24.750;2023-05-08T02:34:09;99980.06;;;12.21;55.08
32875;BME280;40468;42.128;24.750;2023-05-08T02:35:44;99980.91;;;12.21;55.25
32875;BME280;40468;42.128;24.750;2023-05-08T02:37:19;99982.63;;;12.22;55.05
32875;BME280;40468;42.128;24.750;2023-05-08T02:38:53;99971.47;;;12.19;55.13
32875;BME280;40468;42.128;24.750;2023-05-08T02:40:28;99990.34;;;12.24;54.93
32875;BME280;40468;42.128;24.750;2023-05-08T02:42:01;99983.44;;;12.23;54.80
32875;BME280;40468;42.128;24.750;2023-05-08T02:43:34;99986.91;;;12.23;54.87
32875;BME280;40468;42.128;24.750;2023-05-08T02:45:06;99986.91;;;12.23;54.56
32875;BME280;40468;42.128;24.750;2023-05-08T02:46:44;99978.53;;;12.17;54.59
32875;BME280;40468;42.128;24.750;2023-05-08T02:48:22;99985.69;;;12.13;54.61
32875;BME280;40468;42.128;24.750;2023-05-08T02:50:00;99997.50;;;12.20;54.60
32875;BME280;40468;42.128;24.750;2023-05-08T02:51:47;99984.69;;;12.16;54.66
32875;BME280;40468;42.128;24.750;2023-05-08T02:53:25;99982.81;;;12.18;54.61
32875;BME280;40468;42.128;24.750;2023-05-08T02:55:06;99987.16;;;12.19;54.69
32875;BME280;40468;42.128;24.750;2023-05-08T02:56:49;99980.47;;;12.13;54.56
32875;BME280;40468;42.128;24.750;2023-05-08T02:58:28;99988.97;;;12.17;54.81
32875;BME280;40468;42.128;24.750;2023-05-08T03:00:05;99989.97;;;12.14;54.54
32875;BME280;40468;42.128;24.750;2023-05-08T03:01:46;99995.97;;;12.16;54.79
32875;BME280;40468;42.128;24.750;2023-05-08T03:03:22;99978.19;;;12.05;54.92
32875;BME280;40468;42.128;24.750;2023-05-08T03:04:59;99978.06;;;12.09;54.80
32875;BME280;40468;42.128;24.750;2023-05-08T03:06:35;99939.22;;;11.83;54.59
32875;BME280;40468;42.128;24.750;2023-05-08T03:08:21;99985.72;;;12.12;54.49
32875;BME280;40468;42.128;24.750;2023-05-08T03:09:58;99990.97;;;12.12;54.57
32875;BME280;40468;42.128;24.750;2023-05-08T03:11:37;99986.56;;;12.12;54.64
32875;BME280;40468;42.128;24.750;2023-05-08T03:13:10;99994.50;;;12.11;54.80
32875;BME280;40468;42.128;24.750;2023-05-08T03:14:44;100001.78;;;12.04;54.85
32875;BME280;40468;42.128;24.750;2023-05-08T03:16:19;99993.97;;;12.04;55.08
32875;BME280;40468;42.128;24.750;2023-05-08T03:17:57;99994.00;;;12.02;54.69
32875;BME280;40468;42.128;24.750;2023-05-08T03:19:36;99992.25;;;12.03;54.77
32875;BME280;40468;42.128;24.750;2023-05-08T03:21:08;99998.16;;;12.06;54.92
32875;BME280;40468;42.128;24.750;2023-05-08T03:22:43;99997.31;;;12.06;54.64
32875;BME280;40468;42.128;24.750;2023-05-08T03:24:19;99992.09;;;12.06;54.48
32875;BME280;40468;42.128;24.750;2023-05-08T03:25:54;100008.53;;;12.08;54.88
32875;BME280;40468;42.128;24.750;2023-05-08T03:27:28;100003.22;;;12.10;54.49
32875;BME280;40468;42.128;24.750;2023-05-08T03:29:00;100003.16;;;12.11;54.56
32875;BME280;40468;42.128;24.750;2023-05-08T03:30:33;100008.59;;;12.06;54.88
32875;BME280;40468;42.128;24.750;2023-05-08T03:32:06;100012.00;;;12.09;54.80
32875;BME280;40468;42.128;24.750;2023-05-08T03:33:40;100010.00;;;12.14;54.84
32875;BME280;40468;42.128;24.750;2023-05-08T03:35:13;100009.03;;;12.16;54.48
32875;BME280;40468;42.128;24.750;2023-05-08T03:36:46;100001.88;;;12.20;54.61
32875;BME280;40468;42.128;24.750;2023-05-08T03:38:18;100012.19;;;12.23;54.86
32875;BME280;40468;42.128;24.750;2023-05-08T03:39:51;100012.81;;;12.28;54.48
32875;BME280;40468;42.128;24.750;2023-05-08T03:41:24;100012.72;;;12.29;54.69
32875;BME280;40468;42.128;24.750;2023-05-08T03:42:57;100013.50;;;12.32;54.58
32875;BME280;40468;42.128;24.750;2023-05-08T03:44:31;100006.50;;;12.32;54.68
32875;BME280;40468;42.128;24.750;2023-05-08T03:46:03;100015.31;;;12.29;54.44
32875;BME280;40468;42.128;24.750;2023-05-08T03:47:36;100021.34;;;12.32;54.85
32875;BME280;40468;42.128;24.750;2023-05-08T03:49:08;100019.56;;;12.32;54.63
32875;BME280;40468;42.128;24.750;2023-05-08T03:50:40;100018.47;;;12.36;54.58
32875;BME280;40468;42.128;24.750;2023-05-08T03:52:12;100022.66;;;12.40;54.46
32875;BME280;40468;42.128;24.750;2023-05-08T03:53:44;100019.94;;;12.42;54.41
32875;BME280;40468;42.128;24.750;2023-05-08T03:55:17;100024.03;;;12.47;54.43
32875;BME280;40468;42.128;24.750;2023-05-08T03:56:49;100008.59;;;12.43;54.31
32875;BME280;40468;42.128;24.750;2023-05-08T03:58:25;100021.25;;;12.50;54.52
32875;BME280;40468;42.128;24.750;2023-05-08T04:00:02;100022.81;;;12.55;54.17
32875;BME280;40468;42.128;24.750;2023-05-08T04:01:37;100024.44;;;12.57;54.54
32875;BME280;40468;42.128;24.750;2023-05-08T04:03:17;100021.81;;;12.57;54.54
32875;BME280;40468;42.128;24.750;2023-05-08T04:04:54;100032.03;;;12.62;54.44
32875;BME280;40468;42.128;24.750;2023-05-08T04:06:36;100027.50;;;12.65;53.94
32875;BME280;40468;42.128;24.750;2023-05-08T04:08:15;99986.16;;;12.39;54.19
32875;BME280;40468;42.128;24.750;2023-05-08T04:09:54;100027.31;;;12.68;54.03
32875;BME280;40468;42.128;24.750;2023-05-08T04:11:36;100030.66;;;12.72;54.18
32875;BME280;40468;42.128;24.750;2023-05-08T04:13:13;100033.13;;;12.75;54.00
32875;BME280;40468;42.128;24.750;2023-05-08T04:14:48;100019.28;;;12.73;53.65
32875;BME280;40468;42.128;24.750;2023-05-08T04:16:23;100031.94;;;12.81;53.67
32875;BME280;40468;42.128;24.750;2023-05-08T04:17:59;100027.41;;;12.84;53.86
32875;BME280;40468;42.128;24.750;2023-05-08T04:19:38;100027.41;;;12.84;53.45
32875;BME280;40468;42.128;24.750;2023-05-08T04:21:17;100034.16;;;12.88;53.10
32875;BME280;40468;42.128;24.750;2023-05-08T04:22:52;100032.50;;;12.87;52.87
32875;BME280;40468;42.128;24.750;2023-05-08T04:24:27;100027.94;;;12.91;53.09
32875;BME280;40468;42.128;24.750;2023-05-08T04:26:00;100039.75;;;12.98;52.87
32875;BME280;40468;42.128;24.750;2023-05-08T04:27:35;100031.25;;;12.94;52.86
32875;BME280;40468;42.128;24.750;2023-05-08T04:29:06;100028.25;;;13.02;52.60
32875;BME280;40468;42.128;24.750;2023-05-08T04:30:39;100015.66;;;12.93;52.49
32875;BME280;40468;42.128;24.750;2023-05-08T04:32:11;100031.22;;;13.12;52.23
32875;BME280;40468;42.128;24.750;2023-05-08T04:33:44;100036.28;;;13.15;51.99
32875;BME280;40468;42.128;24.750;2023-05-08T04:35:15;100031.75;;;13.18;51.75
32875;BME280;40468;42.128;24.750;2023-05-08T04:36:47;100032.34;;;13.24;51.45
32875;BME280;40468;42.128;24.750;2023-05-08T04:38:19;100030.53;;;13.26;51.63
32875;BME280;40468;42.128;24.750;2023-05-08T04:39:51;100021.75;;;13.27;51.22
32875;BME280;40468;42.128;24.750;2023-05-08T04:41:23;100035.34;;;13.33;51.25
32875;BME280;40468;42.128;24.750;2023-05-08T04:42:57;100032.56;;;13.36;50.93
32875;BME280;40468;42.128;24.750;2023-05-08T04:44:28;100028.13;;;13.38;51.13
32875;BME280;40468;42.128;24.750;2023-05-08T04:46:02;100011.91;;;13.32;50.48
32875;BME280;40468;42.128;24.750;2023-05-08T04:47:35;100031.84;;;13.50;50.70
32875;BME280;40468;42.128;24.750;2023-05-08T04:49:07;100029.75;;;13.57;50.48
32875;BME280;40468;42.128;24.750;2023-05-08T04:50:39;100032.97;;;13.62;50.24
32875;BME280;40468;42.128;24.750;2023-05-08T04:52:11;100025.00;;;13.63;50.06
32875;BME280;40468;42.128;24.750;2023-05-08T04:53:42;100030.50;;;13.75;50.03
32875;BME280;40468;42.128;24.750;2023-05-08T04:55:14;100030.19;;;13.81;49.38
32875;BME280;40468;42.128;24.750;2023-05-08T04:56:46;100028.00;;;13.89;48.98
32875;BME280;40468;42.128;24.750;2023-05-08T04:58:20;100013.13;;;13.89;48.92
32875;BME280;40468;42.128;24.750;2023-05-08T04:59:51;100028.25;;;14.00;48.88
32875;BME280;40468;42.128;24.750;2023-05-08T05:01:23;100027.81;;;14.08;48.69
32875;BME280;40468;42.128;24.750;2023-05-08T05:02:55;100021.06;;;14.20;48.19
32875;BME280;40468;42.128;24.750;2023-05-08T05:04:26;100016.38;;;14.25;47.82
32875;BME280;40468;42.128;24.750;2023-05-08T05:05:58;100020.25;;;14.33;47.60
32875;BME280;40468;42.128;24.750;2023-05-08T05:07:31;100021.59;;;14.41;47.66
32875;BME280;40468;42.128;24.750;2023-05-08T05:09:02;100014.47;;;14.43;47.19
32875;BME280;40468;42.128;24.750;2023-05-08T05:10:34;100028.50;;;14.57;46.93
32875;BME280;40468;42.128;24.750;2023-05-08T05:12:06;100026.47;;;14.63;46.73
32875;BME280;40468;42.128;24.750;2023-05-08T05:13:39;100031.09;;;14.73;46.75
32875;BME280;40468;42.128;24.750;2023-05-08T05:15:11;100027.16;;;14.81;46.86
32875;BME280;40468;42.128;24.750;2023-05-08T05:16:42;100023.56;;;14.97;46.89
32875;BME280;40468;42.128;24.750;2023-05-08T05:18:14;100029.47;;;15.30;46.69
32875;BME280;40468;42.128;24.750;2023-05-08T05:19:46;100019.63;;;15.62;46.21
32875;BME280;40468;42.128;24.750;2023-05-08T05:21:18;100018.34;;;15.96;45.74
32875;BME280;40468;42.128;24.750;2023-05-08T05:22:50;100017.94;;;16.29;45.14
32875;BME280;40468;42.128;24.750;2023-05-08T05:24:22;100026.97;;;16.65;44.46
32875;BME280;40468;42.128;24.750;2023-05-08T05:25:54;100019.25;;;17.02;43.59
32875;BME280;40468;42.128;24.750;2023-05-08T05:27:26;100013.03;;;17.28;42.71
32875;BME280;40468;42.128;24.750;2023-05-08T05:28:59;100008.69;;;17.53;42.25
32875;BME280;40468;42.128;24.750;2023-05-08T05:30:31;100008.69;;;17.66;42.00
32875;BME280;40468;42.128;24.750;2023-05-08T05:32:03;100003.28;;;17.67;41.11
32875;BME280;40468;42.128;24.750;2023-05-08T05:33:36;100003.28;;;17.67;40.44
32875;BME280;40468;42.128;24.750;2023-05-08T05:35:09;99997.63;;;17.61;40.44
32875;BME280;40468;42.128;24.750;2023-05-08T05:36:41;99993.09;;;17.50;40.34
32875;BME280;40468;42.128;24.750;2023-05-08T05:38:13;100006.91;;;17.41;39.61
32875;BME280;40468;42.128;24.750;2023-05-08T05:39:45;99999.88;;;17.28;39.44
32875;BME280;40468;42.128;24.750;2023-05-08T05:41:17;100003.25;;;17.18;39.68
32875;BME280;40468;42.128;24.750;2023-05-08T05:42:49;99992.44;;;17.10;40.03
32875;BME280;40468;42.128;24.750;2023-05-08T05:44:21;99990.19;;;17.03;40.42
32875;BME280;40468;42.128;24.750;2023-05-08T05:45:53;100000.72;;;17.03;40.56
32875;BME280;40468;42.128;24.750;2023-05-08T05:47:25;100004.31;;;17.02;40.85
32875;BME280;40468;42.128;24.750;2023-05-08T05:48:57;100001.69;;;17.02;40.93
32875;BME280;40468;42.128;24.750;2023-05-08T05:50:29;99999.69;;;17.06;40.81
32875;BME280;40468;42.128;24.750;2023-05-08T05:52:01;99995.25;;;17.06;40.62
32875;BME280;40468;42.128;24.750;2023-05-08T05:53:33;99990.19;;;17.03;40.36
32875;BME280;40468;42.128;24.750;2023-05-08T05:55:06;99992.00;;;17.03;40.58
32875;BME280;40468;42.128;24.750;2023-05-08T05:56:38;99975.91;;;16.95;40.64
32875;BME280;40468;42.128;24.750;2023-05-08T05:58:09;99980.34;;;17.07;40.89
32875;BME280;40468;42.128;24.750;2023-05-08T05:59:43;99971.19;;;17.13;41.03
32875;BME280;40468;42.128;24.750;2023-05-08T06:01:14;99963.38;;;17.11;41.02
32875;BME280;40468;42.128;24.750;2023-05-08T06:02:46;99969.56;;;17.23;40.78
32875;BME280;40468;42.128;24.750;2023-05-08T06:04:18;99980.50;;;17.42;41.02
32875;BME280;40468;42.128;24.750;2023-05-08T06:05:50;99981.06;;;17.59;40.80
32875;BME280;40468;42.128;24.750;2023-05-08T06:07:22;99980.53;;;17.79;40.44
32875;BME280;40468;42.128;24.750;2023-05-08T06:08:54;99988.38;;;17.92;40.16
32875;BME280;40468;42.128;24.750;2023-05-08T06:10:26;99990.97;;;18.05;39.54
32875;BME280;40468;42.128;24.750;2023-05-08T06:11:58;99974.66;;;18.00;38.99
32875;BME280;40468;42.128;24.750;2023-05-08T06:13:30;99978.72;;;18.04;39.19
32875;BME280;40468;42.128;24.750;2023-05-08T06:15:04;99992.53;;;18.07;39.00
32875;BME280;40468;42.128;24.750;2023-05-08T06:16:36;99957.31;;;17.84;38.55
32875;BME280;40468;42.128;24.750;2023-05-08T06:18:08;99982.38;;;17.90;38.31
32875;BME280;40468;42.128;24.750;2023-05-08T06:19:40;99981.34;;;17.80;38.31
32875;BME280;40468;42.128;24.750;2023-05-08T06:21:12;99978.41;;;17.71;38.72
32875;BME280;40468;42.128;24.750;2023-05-08T06:22:44;99975.97;;;17.68;39.20
32875;BME280;40468;42.128;24.750;2023-05-08T06:24:16;99976.09;;;17.67;39.28
32875;BME280;40468;42.128;24.750;2023-05-08T06:25:47;99973.69;;;17.64;39.32
32875;BME280;40468;42.128;24.750;2023-05-08T06:27:19;99974.44;;;17.66;39.34
32875;BME280;40468;42.128;24.750;2023-05-08T06:28:51;99972.41;;;17.69;39.42
32875;BME280;40468;42.128;24.750;2023-05-08T06:30:24;99969.88;;;17.68;39.42
32875;BME280;40468;42.128;24.750;2023-05-08T06:31:56;99982.50;;;17.76;39.18
32875;BME280;40468;42.128;24.750;2023-05-08T06:33:28;99976.84;;;17.69;39.11
32875;BME280;40468;42.128;24.750;2023-05-08T06:35:01;99974.44;;;17.66;39.08
32875;BME280;40468;42.128;24.750;2023-05-08T06:36:33;99977.25;;;17.76;39.26
32875;BME280;40468;42.128;24.750;2023-05-08T06:38:05;99976.22;;;17.78;39.35
32875;BME280;40468;42.128;24.750;2023-05-08T06:39:37;99960.41;;;17.78;39.45
32875;BME280;40468;42.128;24.750;2023-05-08T06:41:09;99963.44;;;17.85;39.50
32875;BME280;40468;42.128;24.750;2023-05-08T06:42:41;99962.88;;;17.92;39.34
32875;BME280;40468;42.128;24.750;2023-05-08T06:44:13;99972.56;;;17.92;39.14
32875;BME280;40468;42.128;24.750;2023-05-08T06:45:46;99960.66;;;17.86;39.13
32875;BME280;40468;42.128;24.750;2023-05-08T06:47:18;99958.03;;;17.86;39.27
32875;BME280;40468;42.128;24.750;2023-05-08T06:48:50;99957.50;;;17.94;39.51
32875;BME280;40468;42.128;24.750;2023-05-08T06:50:22;99951.03;;;17.98;39.60
32875;BME280;40468;42.128;24.750;2023-05-08T06:51:54;99958.66;;;18.14;39.34
32875;BME280;40468;42.128;24.750;2023-05-08T06:53:26;99950.06;;;18.23;39.28
32875;BME280;40468;42.128;24.750;2023-05-08T06:54:58;99964.97;;;18.35;39.31
32875;BME280;40468;42.128;24.750;2023-05-08T06:56:29;99965.22;;;18.44;39.09
32875;BME280;40468;42.128;24.750;2023-05-08T06:58:01;99955.19;;;18.49;39.17
32875;BME280;40468;42.128;24.750;2023-05-08T06:59:33;99942.94;;;18.48;38.83
32875;BME280;40468;42.128;24.750;2023-05-08T07:01:07;99953.78;;;18.67;39.15
32875;BME280;40468;42.128;24.750;2023-05-08T07:02:39;99953.47;;;18.83;39.07
32875;BME280;40468;42.128;24.750;2023-05-08T07:04:10;99950.38;;;19.00;39.10
32875;BME280;40468;42.128;24.750;2023-05-08T07:05:43;99950.72;;;19.18;38.81
32875;BME280;40468;42.128;24.750;2023-05-08T07:07:15;99936.06;;;19.25;38.50
32875;BME280;40468;42.128;24.750;2023-05-08T07:08:46;99947.59;;;19.36;38.24
32875;BME280;40468;42.128;24.750;2023-05-08T07:10:18;99945.78;;;19.47;38.30
32875;BME280;40468;42.128;24.750;2023-05-08T07:11:51;99945.16;;;19.55;38.08
32875;BME280;40468;42.128;24.750;2023-05-08T07:13:23;99945.38;;;19.74;38.02
32875;BME280;40468;42.128;24.750;2023-05-08T07:14:55;99920.31;;;19.69;37.51
32875;BME280;40468;42.128;24.750;2023-05-08T07:16:29;99934.31;;;19.81;37.09
32875;BME280;40468;42.128;24.750;2023-05-08T07:18:00;99939.53;;;19.71;37.21
32875;BME280;40468;42.128;24.750;2023-05-08T07:19:33;99939.38;;;19.72;37.27
32875;BME280;40468;42.128;24.750;2023-05-08T07:21:05;99939.59;;;19.81;37.51
32875;BME280;40468;42.128;24.750;2023-05-08T07:22:38;99937.75;;;19.92;37.66
32875;BME280;40468;42.128;24.750;2023-05-08T07:24:09;99934.94;;;20.05;37.47
32875;BME280;40468;42.128;24.750;2023-05-08T07:25:41;99931.31;;;20.17;37.47
32875;BME280;40468;42.128;24.750;2023-05-08T07:27:13;99940.34;;;20.36;37.41
32875;BME280;40468;42.128;24.750;2023-05-08T07:28:46;99928.94;;;20.56;36.94
32875;BME280;40468;42.128;24.750;2023-05-08T07:30:18;99928.03;;;20.67;36.93
32875;BME280;40468;42.128;24.750;2023-05-08T07:31:51;99931.44;;;20.79;37.14
32875;BME280;40468;42.128;24.750;2023-05-08T07:33:23;99928.97;;;20.87;37.12
32875;BME280;40468;42.128;24.750;2023-05-08T07:34:55;99928.63;;;21.01;36.86
32875;BME280;40468;42.128;24.750;2023-05-08T07:36:27;99922.97;;;21.16;36.45
32875;BME280;40468;42.128;24.750;2023-05-08T07:37:59;99925.25;;;21.30;36.56
32875;BME280;40468;42.128;24.750;2023-05-08T07:39:31;99926.56;;;21.45;36.20
32875;BME280;40468;42.128;24.750;2023-05-08T07:41:03;99926.03;;;21.61;36.34
32875;BME280;40468;42.128;24.750;2023-05-08T07:42:39;99937.22;;;21.74;35.78
32875;BME280;40468;42.128;24.750;2023-05-08T07:44:11;99917.69;;;21.66;35.31
32875;BME280;40468;42.128;24.750;2023-05-08T07:45:43;99920.88;;;21.89;35.74
32875;BME280;40468;42.128;24.750;2023-05-08T07:47:16;99931.66;;;22.07;35.49
32875;BME280;40468;42.128;24.750;2023-05-08T07:48:48;99930.69;;;22.17;35.57
32875;BME280;40468;42.128;24.750;2023-05-08T07:50:20;99909.63;;;22.25;35.25
32875;BME280;40468;42.128;24.750;2023-05-08T07:51:52;99923.66;;;22.55;34.92
32875;BME280;40468;42.128;24.750;2023-05-08T07:53:24;99925.28;;;22.76;34.91
32875;BME280;40468;42.128;24.750;2023-05-08T07:54:56;99922.44;;;22.97;34.55
32875;BME280;40468;42.128;24.750;2023-05-08T07:56:28;99866.13;;;22.93;33.84
32875;BME280;40468;42.128;24.750;2023-05-08T07:58:00;99911.50;;;23.37;33.44
32875;BME280;40468;42.128;24.750;2023-05-08T07:59:32;99908.25;;;23.43;33.67
32875;BME280;40468;42.128;24.750;2023-05-08T08:01:04;99902.47;;;23.66;32.99
32875;BME280;40468;42.128;24.750;2023-05-08T08:02:37;99897.88;;;23.86;33.11
32875;BME280;40468;42.128;24.750;2023-05-08T08:04:09;99908.44;;;23.95;33.36
32875;BME280;40468;42.128;24.750;2023-05-08T08:05:41;99897.56;;;24.06;32.74
32875;BME280;40468;42.128;24.750;2023-05-08T08:07:13;99901.75;;;24.09;32.67
32875;BME280;40468;42.128;24.750;2023-05-08T08:08:44;99897.03;;;24.03;32.48
32875;BME280;40468;42.128;24.750;2023-05-08T08:10:16;99903.38;;;24.02;32.13